Time;durP1;ratioP1;P1;durP2;ratioP2;P2;SDS_P1;SDS_P2;PMS_P1;PMS_P2;Temp;Humidity;BMP_temperature;BMP_pressure;BME280_temperature;BME280_humidity;BME280_pressure;Samples;Min_cycle;Max_cycle;Signal;HPM_P1;HPM_P2
2024/03/24 00:00:27;;;;;;;4.73;3.20;;;3.70;99.90;;;-141.84;80.93;21686.09;5110919;27;20219;-66
2024/03/24 00:02:53;;;;;;;4.77;3.07;;;3.80;99.90;;;-141.84;79.08;19102.56;5112898;27;20220;-67
2024/03/24 00:05:21;;;;;;;4.77;2.97;;;3.80;99.90;;;-141.84;78.36;18783.56;5118166;27;20283;-65
2024/03/24 00:07:47;;;;;;;4.43;2.93;;;3.90;99.90;;;-141.84;80.15;19608.56;5110067;27;20211;-67
2024/03/24 00:10:14;;;;;;;5.10;2.63;;;3.90;99.90;;;-141.84;81.59;22393.75;5110168;27;20248;-69
2024/03/24 00:12:43;;;;;;;3.10;2.80;;;3.80;99.90;;;-141.84;79.45;19511.03;5113549;27;20227;-65
2024/03/24 00:15:10;;;;;;;3.63;2.60;;;3.80;99.90;;;-141.84;80.18;19695.97;5112562;27;20223;-66
2024/03/24 00:17:37;;;;;;;3.40;2.63;;;3.80;99.90;;;-141.84;81.68;21777.59;5108345;27;20641;-66
2024/03/24 00:20:06;;;;;;;3.80;2.73;;;3.70;99.90;;;-141.84;81.32;22013.47;5113624;27;20199;-66
2024/03/24 00:22:32;;;;;;;3.67;2.57;;;3.70;99.90;;;-141.84;80.90;20502.88;5109386;27;20632;-67
2024/03/24 00:25:00;;;;;;;3.63;3.00;;;3.70;99.90;;;-141.84;80.62;20767.13;5099154;27;20234;-65
2024/03/24 00:27:26;;;;;;;3.60;2.80;;;3.80;99.90;;;-141.84;80.09;19545.56;5104886;27;20268;-68
2024/03/24 00:29:55;;;;;;;4.00;2.60;;;3.70;99.90;;;-141.84;79.47;19470.38;5104214;27;20700;-67
2024/03/24 00:32:22;;;;;;;3.93;2.70;;;3.70;99.90;;;-141.84;79.12;19043.66;5106982;27;20270;-65
2024/03/24 00:34:48;;;;;;;3.27;2.83;;;3.80;99.90;;;-141.84;81.53;21360.78;5104092;28;20208;-66
2024/03/24 00:37:16;;;;;;;4.40;2.90;;;3.70;99.90;;;-141.84;80.97;21177.78;5102603;27;20597;-66
2024/03/24 00:39:42;;;;;;;2.77;2.57;;;3.70;99.90;;;-141.84;81.31;21562.06;5106742;27;20212;-66
2024/03/24 00:42:09;;;;;;;5.67;3.10;;;3.60;99.90;;;-141.84;80.95;20545.56;5106295;27;20222;-65
2024/03/24 00:44:35;;;;;;;3.07;2.67;;;3.60;99.90;;;-141.84;81.51;21305.88;5103838;27;20225;-67
2024/03/24 00:47:04;;;;;;;4.27;2.83;;;3.60;99.90;;;-141.84;82.15;23559.25;5114825;27;20194;-66
2024/03/24 00:49:31;;;;;;;4.57;2.90;;;3.60;99.90;;;-141.84;82.21;23848.13;5113917;27;20223;-69
2024/03/24 00:51:58;;;;;;;4.83;2.87;;;3.50;99.90;;;-141.84;82.00;23052.72;5113820;27;20224;-65
2024/03/24 00:54:24;;;;;;;3.80;3.00;;;3.50;99.90;;;-141.84;81.59;22969.34;5113746;27;20217;-66
2024/03/24 00:56:52;;;;;;;2.70;2.50;;;3.50;99.90;;;-141.84;81.24;21783.69;5114239;27;20215;-68
2024/03/24 00:59:18;;;;;;;3.23;2.60;;;3.50;99.90;;;-141.84;81.39;21328.25;5115673;27;20222;-69
2024/03/24 01:01:45;;;;;;;5.13;2.80;;;3.50;99.90;;;-141.84;82.08;22737.47;5116773;27;20211;-68
2024/03/24 01:04:13;;;;;;;4.00;2.60;;;3.50;99.90;;;-141.84;82.69;25229.78;5115407;27;20710;-69
2024/03/24 01:06:40;;;;;;;3.60;3.20;;;3.50;99.90;;;-141.84;82.05;22694.75;5112091;27;20227;-68
2024/03/24 01:09:07;;;;;;;3.47;2.67;;;3.40;99.90;;;-141.84;82.54;24507.34;5113272;27;20218;-68
2024/03/24 01:11:34;;;;;;;3.80;2.57;;;3.40;99.90;;;-141.84;84.01;31101.63;5106383;27;20227;-67
2024/03/24 01:14:01;;;;;;;2.83;2.47;;;3.40;99.90;;;-141.84;83.12;27601.47;5118125;27;20200;-67
2024/03/24 01:16:28;;;;;;;4.10;2.67;;;3.40;99.90;;;-141.84;81.02;21141.19;5110733;28;20249;-67
2024/03/24 01:18:54;;;;;;;2.73;2.53;;;3.50;99.90;;;-141.84;80.95;20939.94;5116727;27;20211;-68
2024/03/24 01:21:23;;;;;;;3.40;2.40;;;3.40;99.90;;;-141.84;82.18;23349.72;5114638;27;20297;-68
2024/03/24 01:23:50;;;;;;;3.37;3.07;;;3.40;99.90;;;-141.84;82.27;23530.75;5105071;27;20697;-68
2024/03/24 01:26:18;;;;;;;3.27;2.97;;;3.40;99.90;;;-141.84;82.03;22875.78;5112880;27;20199;-68
2024/03/24 01:28:44;;;;;;;3.97;2.73;;;3.40;99.90;;;-141.84;84.20;31020.09;5112897;27;20222;-67
2024/03/24 01:31:11;;;;;;;3.17;2.67;;;3.30;99.90;;;-141.84;85.95;46536.97;5113301;27;20211;-70
2024/03/24 01:33:37;;;;;;;3.00;2.50;;;3.20;99.90;;;-141.84;84.09;32999.69;5112210;27;20228;-69
2024/03/24 01:36:06;;;;;;;3.20;2.30;;;3.30;99.90;;;-141.84;81.82;22300.22;5111349;27;20299;-68
2024/03/24 01:38:34;;;;;;;2.70;2.50;;;3.30;99.90;;;-141.84;82.61;25154.47;5109473;28;20211;-68
2024/03/24 01:41:01;;;;;;;4.90;3.00;;;3.30;99.90;;;-141.84;82.03;22436.47;5109388;28;20203;-68
2024/03/24 01:43:27;;;;;;;3.20;2.77;;;3.30;99.90;;;-141.84;82.83;24812.56;5113455;27;20203;-68
2024/03/24 01:45:55;;;;;;;2.80;2.43;;;3.30;99.90;;;-141.84;83.37;26730.00;5112128;27;20221;-68
2024/03/24 01:48:21;;;;;;;3.03;2.60;;;3.20;99.90;;;-141.84;83.79;29479.50;5113020;27;20272;-69
2024/03/24 01:50:50;;;;;;;3.87;2.40;;;3.30;99.90;;;-141.84;83.37;29224.84;5110278;27;20227;-68
2024/03/24 01:53:17;;;;;;;5.47;2.53;;;3.20;99.90;;;-141.84;82.40;24116.69;5112960;27;20581;-68
2024/03/24 01:55:45;;;;;;;3.77;2.40;;;3.30;99.90;;;-141.84;83.11;25824.09;5111234;27;20219;-68
2024/03/24 01:58:12;;;;;;;2.87;2.67;;;3.20;99.90;;;-141.84;83.82;30349.56;5106684;27;20223;-68
2024/03/24 02:00:40;;;;;;;3.60;2.40;;;3.20;99.90;;;-141.84;81.79;22344.94;5108110;28;20223;-67
2024/03/24 02:03:06;;;;;;;3.27;2.50;;;3.30;99.90;;;-141.84;81.54;21653.56;5107060;27;20214;-68
2024/03/24 02:05:33;;;;;;;4.17;2.50;;;3.20;99.90;;;-141.84;80.14;19807.75;5111720;27;20218;-68
2024/03/24 02:07:59;;;;;;;2.63;2.37;;;3.30;99.90;;;-141.84;80.34;19789.44;5112742;27;20194;-67
2024/03/24 02:10:28;;;;;;;3.73;2.30;;;3.20;99.90;;;-141.84;80.78;20254.88;5112089;27;20641;-67
2024/03/24 02:12:55;;;;;;;4.00;2.43;;;3.30;99.90;;;-141.84;82.07;22625.59;5110632;27;20396;-68
2024/03/24 02:15:23;;;;;;;4.43;2.47;;;3.20;99.90;;;-141.84;81.58;21763.34;5112247;27;20206;-68
2024/03/24 02:17:50;;;;;;;3.73;2.57;;;3.10;99.90;;;-141.84;82.93;24977.41;5112213;27;20241;-67
2024/03/24 02:20:18;;;;;;;3.43;2.40;;;3.10;99.90;;;-141.84;84.02;30127.47;5111037;27;20690;-67
2024/03/24 02:22:45;;;;;;;2.40;2.20;;;3.10;99.90;;;-141.84;82.82;25182.97;5111207;27;20213;-69
2024/03/24 02:25:13;;;;;;;3.97;2.13;;;3.10;99.90;;;-141.84;83.37;27752.19;5115539;27;20214;-67
2024/03/24 02:27:39;;;;;;;2.23;2.03;;;3.20;99.90;;;-141.84;83.11;26485.69;5112647;27;20275;-68
2024/03/24 02:30:10;;;;;;;2.57;2.20;;;3.10;99.90;;;-141.84;82.23;23123.94;5109524;28;20231;-68
2024/03/24 02:32:37;;;;;;;3.97;2.00;;;3.10;99.90;;;-141.84;81.31;21712.53;5112022;27;20604;-68
2024/03/24 02:35:05;;;;;;;2.93;2.43;;;3.20;99.90;;;-141.84;79.92;19787.41;5102024;28;20204;-67
2024/03/24 02:37:31;;;;;;;2.67;2.10;;;3.30;99.90;;;-141.84;79.99;19409.41;5112002;27;20332;-68
2024/03/24 02:40:00;;;;;;;3.07;2.10;;;3.30;99.90;;;-141.84;80.61;20175.63;5111095;27;20213;-68
2024/03/24 02:42:26;;;;;;;2.00;1.80;;;3.30;99.90;;;-141.84;78.27;18663.69;5110229;27;20226;-68
2024/03/24 02:44:53;;;;;;;3.30;1.97;;;3.40;99.90;;;-141.84;77.14;18423.94;5108105;28;20243;-68
2024/03/24 02:47:20;;;;;;;2.27;2.00;;;3.40;99.90;;;-141.84;76.70;18452.41;5108575;28;20245;-67
2024/03/24 02:49:47;;;;;;;2.60;2.20;;;3.50;99.90;;;-141.84;76.17;18375.19;5112670;28;20255;-68
2024/03/24 02:52:14;;;;;;;2.40;2.10;;;3.60;99.90;;;-141.84;76.15;18387.38;5108158;28;20219;-69
2024/03/24 02:54:41;;;;;;;3.40;2.13;;;3.70;99.90;;;-141.84;74.97;18298.00;5108612;28;20226;-68
2024/03/24 02:57:08;;;;;;;2.07;1.87;;;3.70;99.90;;;-141.84;75.43;18312.22;5110179;28;20235;-68
2024/03/24 02:59:36;;;;;;;2.50;2.30;;;3.70;99.90;;;-141.84;76.58;18448.34;5110993;28;20222;-69
2024/03/24 03:02:02;;;;;;;3.63;2.77;;;3.70;99.90;;;-141.84;77.74;18635.25;5112816;28;20207;-69
2024/03/24 03:04:30;;;;;;;4.07;2.37;;;3.80;99.90;;;-141.84;75.64;18363.00;5111886;28;20339;-68
2024/03/24 03:06:57;;;;;;;3.77;2.10;;;3.80;99.90;;;-141.84;74.69;18298.00;5108397;28;20225;-68
2024/03/24 03:09:26;;;;;;;2.57;2.20;;;3.80;99.90;;;-141.84;74.29;18293.94;5109678;28;20217;-68
2024/03/24 03:11:53;;;;;;;2.37;2.07;;;3.80;99.90;;;-141.84;75.35;18346.75;5110895;28;20648;-67
2024/03/24 03:14:22;;;;;;;2.53;2.10;;;3.70;99.90;;;-141.84;76.13;18432.09;5110367;28;20215;-67
2024/03/24 03:16:48;;;;;;;2.23;1.97;;;3.80;99.90;;;-141.84;76.54;18442.25;5111876;28;20575;-68
2024/03/24 03:19:15;;;;;;;1.90;1.80;;;3.80;99.90;;;-141.84;77.00;18566.16;5110333;28;20227;-68
2024/03/24 03:21:41;;;;;;;2.53;2.00;;;3.90;99.90;;;-141.84;75.82;18401.59;5108458;28;20219;-68
2024/03/24 03:24:09;;;;;;;2.30;1.97;;;3.90;99.90;;;-141.84;74.78;18330.50;5111910;28;20310;-69
2024/03/24 03:26:36;;;;;;;2.87;1.97;;;4.00;99.90;;;-141.84;74.81;18348.78;5111496;28;20285;-69
2024/03/24 03:29:03;;;;;;;2.13;1.70;;;4.00;99.90;;;-141.84;74.82;18358.94;5108296;28;20221;-67
2024/03/24 03:31:31;;;;;;;2.10;1.87;;;4.00;99.90;;;-141.84;73.36;18277.69;5112311;28;20209;-67
2024/03/24 03:33:58;;;;;;;4.07;2.00;;;4.10;99.90;;;-141.84;74.06;18306.13;5110225;28;20245;-68
2024/03/24 03:36:24;;;;;;;2.20;2.00;;;4.00;99.90;;;-141.84;73.61;18326.44;5108792;28;20217;-68
2024/03/24 03:38:51;;;;;;;2.20;1.87;;;4.10;99.90;;;-141.84;71.85;18304.09;5112031;28;20222;-68
2024/03/24 03:41:18;;;;;;;2.30;2.10;;;4.30;99.90;;;-141.84;72.59;18300.03;5111365;28;21519;-68
2024/03/24 03:43:45;;;;;;;3.60;2.03;;;4.20;99.90;;;-141.84;71.62;18259.41;5112336;28;20221;-69
2024/03/24 03:46:11;;;;;;;2.03;1.83;;;4.20;99.90;;;-141.84;72.70;18326.44;5111416;28;20224;-68
2024/03/24 03:48:43;;;;;;;3.50;1.90;;;4.20;99.90;;;-141.84;72.62;18310.19;5105412;28;20210;-68
2024/03/24 03:51:17;;;;;;;2.03;1.93;;;4.20;99.90;;;-141.84;74.78;18379.25;5110472;27;20214;-67
2024/03/24 03:53:46;;;;;;;2.43;1.97;;;4.20;99.90;;;-141.84;73.76;18371.13;5121199;27;20215;-67
2024/03/24 03:56:13;;;;;;;2.43;2.07;;;4.20;99.90;;;-141.84;72.85;18326.44;5111734;28;20211;-68
2024/03/24 03:58:41;;;;;;;3.30;2.00;;;4.20;99.90;;;-141.84;72.07;18232.97;5115547;27;20204;-68
2024/03/24 04:01:07;;;;;;;2.53;2.10;;;4.30;99.90;;;-141.84;72.53;18310.19;5111791;27;20284;-68
2024/03/24 04:03:35;;;;;;;2.23;2.00;;;4.30;99.90;;;-141.84;74.75;18409.72;5113118;27;20212;-67
2024/03/24 04:06:05;;;;;;;2.60;2.37;;;4.20;99.90;;;-141.84;76.52;18549.91;5114439;27;20237;-72
2024/03/24 04:08:32;;;;;;;3.27;1.80;;;4.00;99.90;;;-141.84;75.02;18387.38;5115433;27;20223;-68
2024/03/24 04:10:58;;;;;;;3.10;2.20;;;4.00;99.90;;;-141.84;76.09;18454.44;5114902;27;20259;-68
2024/03/24 04:13:26;;;;;;;3.93;2.30;;;3.90;99.90;;;-141.84;77.07;18592.59;5114591;27;20239;-68
2024/03/24 04:15:52;;;;;;;3.17;2.23;;;3.90;99.90;;;-141.84;78.04;18862.81;5114149;27;20414;-68
2024/03/24 04:18:19;;;;;;;3.77;2.50;;;3.70;99.90;;;-141.84;75.28;18369.09;5110699;28;20702;-69
2024/03/24 04:20:46;;;;;;;2.30;2.10;;;3.80;99.90;;;-141.84;76.51;18491.00;5112288;27;20266;-68
2024/03/24 04:23:14;;;;;;;3.93;2.40;;;3.70;99.90;;;-141.84;77.49;18671.81;5108859;27;20264;-69
2024/03/24 04:25:41;;;;;;;4.70;2.50;;;3.70;99.90;;;-141.84;77.88;18803.88;5114275;27;20703;-68
2024/03/24 04:28:08;;;;;;;3.37;2.47;;;3.70;99.90;;;-141.84;78.52;18866.88;5131097;27;20265;-68
2024/03/24 04:30:35;;;;;;;3.17;2.17;;;3.60;99.90;;;-141.84;79.55;19403.31;5113336;27;20268;-68
2024/03/24 04:33:02;;;;;;;2.53;2.20;;;3.60;99.90;;;-141.84;78.05;18858.75;5110805;28;20213;-68
2024/03/24 04:35:28;;;;;;;3.60;2.47;;;3.60;99.90;;;-141.84;77.69;18686.03;5114123;27;20725;-68
2024/03/24 04:37:55;;;;;;;3.13;2.33;;;3.60;99.90;;;-141.84;79.76;19344.41;5110906;28;20215;-68
2024/03/24 04:40:24;;;;;;;3.23;2.43;;;3.50;99.90;;;-141.84;81.53;22395.78;5113673;27;20283;-68
2024/03/24 04:42:51;;;;;;;3.07;2.80;;;3.50;99.90;;;-141.84;81.98;23239.88;5110390;28;20223;-68
2024/03/24 04:45:19;;;;;;;3.13;2.30;;;3.40;99.90;;;-141.84;82.33;24063.78;5111474;27;20212;-70
2024/03/24 04:47:46;;;;;;;3.37;2.80;;;3.40;99.90;;;-141.84;82.60;25579.84;5115326;27;20211;-68
2024/03/24 04:50:13;;;;;;;4.43;2.70;;;3.40;99.90;;;-141.84;80.68;20472.38;5111072;28;20216;-67
2024/03/24 04:52:40;;;;;;;3.20;2.60;;;3.40;99.90;;;-141.84;80.59;20289.44;5113703;27;20200;-68
2024/03/24 04:55:08;;;;;;;4.93;3.00;;;3.40;99.90;;;-141.84;79.57;19578.09;5109844;27;20281;-68
2024/03/24 04:57:36;;;;;;;3.93;2.60;;;3.40;99.90;;;-141.84;80.71;20443.91;5108559;27;20217;-68
2024/03/24 05:00:07;;;;;;;5.83;3.00;;;3.50;99.90;;;-141.84;80.84;20775.25;5111259;27;20227;-68
2024/03/24 05:02:35;;;;;;;2.97;2.70;;;3.50;99.90;;;-141.84;81.68;22224.97;5109795;27;20691;-68
2024/03/24 05:05:01;;;;;;;2.90;2.60;;;3.60;99.90;;;-141.84;79.29;19569.97;5109084;28;20195;-66
2024/03/24 05:07:29;;;;;;;4.53;3.07;;;3.60;99.90;;;-141.84;78.32;18885.16;5113573;27;20206;-68
2024/03/24 05:09:56;;;;;;;3.97;2.77;;;3.70;99.90;;;-141.84;77.99;18736.84;5113333;27;20218;-68
2024/03/24 05:12:23;;;;;;;3.20;2.80;;;3.80;99.90;;;-141.84;79.05;19147.28;5110573;27;20700;-68
2024/03/24 05:14:51;;;;;;;3.50;2.87;;;3.80;99.90;;;-141.84;79.60;19604.50;5110341;27;20223;-68
2024/03/24 05:17:18;;;;;;;4.27;2.70;;;3.80;99.90;;;-141.84;76.74;18556.00;5110890;27;21134;-67
2024/03/24 05:19:44;;;;;;;3.97;2.70;;;3.90;99.90;;;-141.84;74.11;18269.56;5113715;27;20727;-68
2024/03/24 05:22:13;;;;;;;3.60;2.50;;;4.00;99.90;;;-141.84;75.93;18389.41;5112443;27;20252;-67
2024/03/24 05:24:39;;;;;;;2.87;2.60;;;4.00;99.90;;;-141.84;77.61;18667.75;5113373;27;20236;-68
2024/03/24 05:27:07;;;;;;;4.00;2.63;;;4.00;99.90;;;-141.84;78.11;18789.66;5130248;27;20228;-68
2024/03/24 05:29:33;;;;;;;3.10;2.80;;;4.00;99.90;;;-141.84;78.74;19092.41;5112698;27;20223;-68
2024/03/24 05:32:02;;;;;;;4.20;2.70;;;4.00;99.90;;;-141.84;78.31;18929.88;5113156;27;20199;-67
2024/03/24 05:34:28;;;;;;;3.20;2.73;;;4.00;99.90;;;-141.84;77.96;18797.78;5108478;27;20283;-68
2024/03/24 05:36:56;;;;;;;3.87;2.73;;;4.10;99.90;;;-141.84;74.47;18409.72;5112059;27;20210;-68
2024/03/24 05:39:22;;;;;;;2.70;2.50;;;4.30;99.90;;;-141.84;73.44;18326.44;5112593;27;20538;-68
2024/03/24 05:41:50;;;;;;;3.37;2.70;;;4.40;99.90;;;-141.84;70.98;18247.22;5112418;27;20719;-67
2024/03/24 05:44:17;;;;;;;4.80;2.43;;;4.50;99.90;;;-141.84;70.26;18265.50;5112173;27;20198;-68
2024/03/24 05:46:44;;;;;;;2.90;2.60;;;4.70;99.90;;;-141.84;70.09;18285.81;5106424;27;20208;-68
2024/03/24 05:49:12;;;;;;;3.37;2.90;;;4.70;99.90;;;-141.84;68.15;18298.00;5112372;27;20294;-68
2024/03/24 05:51:40;;;;;;;3.47;2.70;;;4.90;99.90;;;-141.84;68.31;18330.50;5110377;27;20648;-68
2024/03/24 05:54:06;;;;;;;4.33;2.83;;;5.00;99.90;;;-141.84;68.88;18302.06;5119861;27;20217;-69
2024/03/24 05:56:34;;;;;;;3.47;2.60;;;5.00;99.90;;;-141.84;68.75;18324.41;5108775;27;20223;-68
2024/03/24 05:59:00;;;;;;;5.17;2.63;;;5.00;99.90;;;-141.84;68.47;18298.00;5104356;27;20262;-69
2024/03/24 06:01:27;;;;;;;4.93;2.80;;;5.00;99.90;;;-141.84;68.07;18332.53;5109740;28;20210;-68
2024/03/24 06:03:54;;;;;;;2.93;2.60;;;5.10;99.90;;;-141.84;69.24;18332.53;5109327;27;20219;-68
2024/03/24 06:06:24;;;;;;;3.50;2.40;;;5.00;99.90;;;-141.84;68.47;18330.50;5111806;27;20220;-68
2024/03/24 06:08:51;;;;;;;3.77;2.70;;;5.00;99.90;;;-141.84;68.93;18354.88;5112133;27;20224;-67
2024/03/24 06:11:18;;;;;;;3.00;2.70;;;5.00;99.90;;;-141.84;69.36;18332.53;5108614;28;20238;-68
2024/03/24 06:13:45;;;;;;;4.60;2.90;;;5.10;99.90;;;-141.84;68.38;18330.50;5106952;27;20713;-68
2024/03/24 06:16:12;;;;;;;4.33;3.10;;;5.10;99.90;;;-141.84;69.15;18314.25;5111629;27;20713;-68
2024/03/24 06:18:38;;;;;;;8.17;4.60;;;5.10;99.90;;;-141.84;69.51;18318.31;5108280;28;20593;-67
2024/03/24 06:21:06;;;;;;;8.10;5.87;;;5.10;99.90;;;-141.84;69.82;18322.38;5111595;27;20218;-68
2024/03/24 06:23:34;;;;;;;3.90;2.87;;;5.10;99.90;;;-141.84;69.92;18375.19;5114774;27;20212;-67
2024/03/24 06:26:01;;;;;;;4.60;3.40;;;5.10;99.90;;;-141.84;69.28;18367.06;5111973;27;20206;-66
2024/03/24 06:28:27;;;;;;;3.80;2.83;;;5.20;99.90;;;-141.84;67.84;18348.78;5111973;27;20246;-68
2024/03/24 06:30:55;;;;;;;3.33;2.60;;;5.30;99.90;;;-141.84;67.13;18334.56;5109196;27;20693;-68
2024/03/24 06:33:22;;;;;;;2.90;2.43;;;5.40;99.90;;;-141.84;67.76;18352.84;5107990;28;20757;-69
2024/03/24 06:35:49;;;;;;;4.53;2.83;;;5.40;99.90;;;-141.84;67.99;18363.00;5109466;27;20230;-68
2024/03/24 06:38:16;;;;;;;3.87;2.70;;;5.50;99.90;;;-141.84;66.00;18373.16;5111944;27;20258;-67
2024/03/24 06:40:44;;;;;;;4.37;2.40;;;5.70;99.90;;;-141.84;63.92;18377.22;5111728;27;20198;-67
2024/03/24 06:43:19;;;;;;;2.93;2.57;;;5.80;99.90;;;-141.84;63.10;18405.66;5114757;28;20270;-68
2024/03/24 06:45:48;;;;;;;2.57;2.37;;;6.00;99.90;;;-141.84;61.87;18393.47;5108686;28;20215;-68
2024/03/24 06:48:15;;;;;;;3.57;2.67;;;6.10;99.90;;;-141.84;63.10;18389.41;5112136;27;20225;-68
2024/03/24 06:50:42;;;;;;;3.83;2.50;;;6.10;99.90;;;-141.84;62.37;18413.78;5110718;28;20221;-69
2024/03/24 06:53:09;;;;;;;5.50;2.57;;;6.20;99.90;;;-141.84;63.21;18430.06;5114001;27;20194;-69
2024/03/24 06:55:36;;;;;;;5.97;2.63;;;6.20;99.90;;;-141.84;62.28;18411.75;5112130;28;20681;-69
2024/03/24 06:58:04;;;;;;;3.97;2.43;;;6.30;99.90;;;-141.84;62.76;18425.97;5111144;28;20639;-68
2024/03/24 07:00:31;;;;;;;4.87;2.70;;;6.30;99.90;;;-141.84;62.35;18371.13;5109748;28;20733;-68
2024/03/24 07:02:57;;;;;;;3.97;3.13;;;6.40;99.90;;;-141.84;61.92;18438.19;5108079;28;20745;-68
2024/03/24 07:05:26;;;;;;;3.53;2.33;;;6.50;99.90;;;-141.84;60.71;18434.13;5112036;28;20595;-68
2024/03/24 07:07:53;;;;;;;3.80;2.40;;;6.50;99.90;;;-141.84;59.55;18484.91;5108837;28;20203;-67
2024/03/24 07:10:19;;;;;;;5.33;2.60;;;6.60;99.90;;;-141.84;59.47;18438.19;5111698;28;20264;-67
2024/03/24 07:12:47;;;;;;;6.87;3.53;;;6.60;99.90;;;-141.84;59.47;18482.88;5109999;28;20238;-67
2024/03/24 07:15:14;;;;;;;4.67;2.47;;;6.60;99.90;;;-141.84;59.22;18484.91;5107904;28;20211;-68
2024/03/24 07:17:42;;;;;;;7.70;3.00;;;6.70;99.90;;;-141.84;58.25;18499.13;5107907;28;20292;-68
2024/03/24 07:20:09;;;;;;;5.70;3.13;;;6.70;99.90;;;-141.84;58.21;18493.03;5102220;28;20272;-69
2024/03/24 07:22:36;;;;;;;6.67;3.73;;;6.80;99.90;;;-141.84;57.67;18495.06;5108610;28;20194;-67
2024/03/24 07:25:03;;;;;;;6.33;2.43;;;6.90;99.90;;;-141.84;58.12;18499.13;5105213;28;20219;-69
2024/03/24 07:27:30;;;;;;;3.63;2.20;;;6.90;99.90;;;-141.84;57.26;18495.06;5110635;27;20230;-67
2024/03/24 07:29:57;;;;;;;4.30;2.00;;;7.00;99.90;;;-141.84;56.33;18570.22;5117816;27;20218;-69
2024/03/24 07:32:25;;;;;;;3.53;2.10;;;7.20;99.90;;;-141.84;54.81;18556.00;5114818;27;20712;-69
2024/03/24 07:34:52;;;;;;;3.37;2.50;;;7.50;99.90;;;-141.84;54.65;18566.16;5114651;27;20340;-69
2024/03/24 07:37:20;;;;;;;3.57;2.47;;;7.70;99.90;;;-141.84;54.01;18590.56;5122776;27;20210;-68
2024/03/24 07:39:47;;;;;;;2.53;2.30;;;8.00;99.90;;;-141.84;53.04;18610.88;5114655;27;20218;-68
2024/03/24 07:42:14;;;;;;;3.13;2.00;;;8.10;99.90;;;-141.84;53.29;18596.66;5114282;27;20438;-67
2024/03/24 07:44:40;;;;;;;2.27;1.77;;;8.20;99.90;;;-141.84;52.57;18625.09;5114841;27;20211;-68
2024/03/24 07:47:08;;;;;;;3.30;2.20;;;8.10;99.90;;;-141.84;53.72;18576.31;5114887;27;20203;-68
2024/03/24 07:49:36;;;;;;;4.23;2.77;;;8.10;99.90;;;-141.84;54.67;18566.16;5117376;27;20210;-67
2024/03/24 07:52:04;;;;;;;2.00;1.90;;;7.90;99.90;;;-141.84;56.08;18543.81;5125264;27;20550;-68
2024/03/24 07:54:31;;;;;;;2.90;2.17;;;7.60;99.90;;;-141.84;55.88;18560.06;5112142;27;20652;-68
2024/03/24 07:56:58;;;;;;;2.80;2.50;;;7.50;99.90;;;-141.84;54.87;18519.44;5101993;27;20223;-67
2024/03/24 07:59:24;;;;;;;3.27;2.50;;;7.40;99.90;;;-141.84;54.65;18562.09;5118750;27;20275;-68
2024/03/24 08:01:52;;;;;;;2.70;2.40;;;7.50;99.90;;;-141.84;54.70;18568.19;5111147;27;20196;-69
2024/03/24 08:04:18;;;;;;;4.03;2.10;;;7.40;99.90;;;-141.84;55.06;18578.38;5116052;27;20219;-67
2024/03/24 08:06:46;;;;;;;5.53;2.13;;;7.60;99.90;;;-141.84;54.53;18590.56;5113645;27;20217;-68
2024/03/24 08:09:13;;;;;;;2.90;2.60;;;7.60;99.90;;;-141.84;53.80;18612.91;5111667;27;20219;-68
2024/03/24 08:11:40;;;;;;;3.13;2.10;;;7.80;99.90;;;-141.84;53.55;18606.81;5111014;27;20234;-68
2024/03/24 08:14:06;;;;;;;3.30;2.33;;;8.00;99.90;;;-141.84;53.26;18580.41;5109078;27;20210;-67
2024/03/24 08:16:34;;;;;;;3.77;2.90;;;7.90;99.90;;;-141.84;53.79;18564.13;5112353;27;20651;-68
2024/03/24 08:19:00;;;;;;;4.70;2.70;;;7.90;99.90;;;-141.84;54.08;18582.44;5113231;27;20227;-68
2024/03/24 08:21:27;;;;;;;3.57;2.63;;;7.80;99.90;;;-141.84;53.77;18584.47;5107565;27;20584;-68
2024/03/24 08:23:55;;;;;;;3.70;2.80;;;7.80;99.90;;;-141.84;54.31;18602.75;5111833;27;20230;-65
2024/03/24 08:26:22;;;;;;;4.13;2.60;;;7.70;99.90;;;-141.84;54.04;18568.19;5113479;27;20222;-66
2024/03/24 08:28:48;;;;;;;3.60;2.27;;;7.80;99.90;;;-141.84;53.12;18558.03;5114408;27;20259;-65
2024/03/24 08:31:16;;;;;;;3.07;2.40;;;7.80;99.90;;;-141.84;53.46;18643.38;5113678;27;20245;-65
2024/03/24 08:33:42;;;;;;;2.50;2.30;;;7.90;99.90;;;-141.84;52.58;18639.31;5113353;27;20211;-65
2024/03/24 08:36:11;;;;;;;3.47;2.87;;;8.00;99.90;;;-141.84;52.44;18637.28;5114220;27;20222;-65
2024/03/24 08:38:37;;;;;;;3.60;2.47;;;8.10;99.90;;;-141.84;53.65;18604.78;5112038;27;20215;-65
2024/03/24 08:41:06;;;;;;;3.47;2.40;;;8.10;99.90;;;-141.84;54.74;18598.69;5112766;27;20614;-66
2024/03/24 08:43:32;;;;;;;2.33;2.13;;;8.10;99.90;;;-141.84;53.68;18637.28;5112002;27;20195;-66
2024/03/24 08:46:00;;;;;;;3.23;2.63;;;8.00;99.90;;;-141.84;54.17;18621.03;5113046;27;20237;-70
2024/03/24 08:48:26;;;;;;;3.03;2.40;;;7.90;99.90;;;-141.84;54.55;18596.66;5112733;27;20210;-65
2024/03/24 08:50:53;;;;;;;2.77;2.37;;;7.80;99.90;;;-141.84;54.57;18574.28;5110868;27;20234;-65
2024/03/24 08:53:19;;;;;;;3.53;2.60;;;7.80;99.90;;;-141.84;56.70;18578.38;5113966;27;20218;-64
2024/03/24 08:55:47;;;;;;;2.70;2.30;;;7.50;99.90;;;-141.84;60.96;18511.31;5110115;27;20199;-65
2024/03/24 08:58:15;;;;;;;2.90;2.70;;;7.20;99.90;;;-141.84;64.50;18523.50;5117235;27;20230;-66
2024/03/24 09:00:45;;;;;;;3.30;3.00;;;7.00;99.90;;;-141.84;67.42;18549.91;5096320;27;20219;-65
2024/03/24 09:03:12;;;;;;;4.20;3.23;;;6.80;99.90;;;-141.84;69.01;18558.03;5110807;27;20222;-67
2024/03/24 09:05:39;;;;;;;3.90;3.17;;;6.80;99.90;;;-141.84;68.79;18454.44;5110218;27;20754;-65
2024/03/24 09:08:06;;;;;;;4.07;3.57;;;6.80;99.90;;;-141.84;69.23;18470.69;5129827;27;20663;-65
2024/03/24 09:10:33;;;;;;;3.90;3.50;;;6.60;99.90;;;-141.84;69.90;18501.16;5112963;27;20724;-66
2024/03/24 09:12:59;;;;;;;4.13;3.27;;;6.50;99.90;;;-141.84;69.51;18462.56;5111922;27;20435;-65
2024/03/24 09:15:28;;;;;;;4.30;3.00;;;6.40;99.90;;;-141.84;70.35;18458.50;5116264;27;20690;-66
2024/03/24 09:17:57;;;;;;;4.47;3.40;;;6.30;99.90;;;-141.84;72.50;18525.53;5120176;27;20222;-65
2024/03/24 09:20:28;;;;;;;4.47;3.40;;;6.30;99.90;;;-141.84;71.68;18480.84;5116785;27;20287;-70
2024/03/24 09:22:54;;;;;;;5.27;3.47;;;6.30;99.90;;;-141.84;72.32;18482.88;5111147;27;20738;-65
2024/03/24 09:25:21;;;;;;;3.83;2.97;;;6.20;99.90;;;-141.84;71.48;18470.69;5112657;27;20240;-66
2024/03/24 09:27:48;;;;;;;4.73;3.10;;;6.30;99.90;;;-141.84;69.50;18468.66;5107861;27;20230;-66
2024/03/24 09:30:16;;;;;;;3.90;3.50;;;6.40;99.90;;;-141.84;69.60;18444.28;5112541;27;20240;-64
2024/03/24 09:32:47;;;;;;;3.33;3.03;;;6.50;99.90;;;-141.84;69.39;18460.53;5115400;27;20219;-66
2024/03/24 09:35:14;;;;;;;3.33;3.03;;;6.50;99.90;;;-141.84;69.13;18462.56;5117230;27;20452;-67
2024/03/24 09:37:42;;;;;;;3.63;2.93;;;6.60;99.90;;;-141.84;66.82;18448.34;5113114;27;20202;-65
2024/03/24 09:40:11;;;;;;;3.50;2.90;;;6.70;99.90;;;-141.84;67.87;18450.38;5103258;27;20277;-65
2024/03/24 09:42:38;;;;;;;3.87;2.90;;;6.80;99.90;;;-141.84;66.28;18505.22;5112040;27;20211;-65
2024/03/24 09:45:10;;;;;;;3.40;3.10;;;6.90;99.90;;;-141.84;67.19;18476.78;5111607;27;20717;-66
2024/03/24 09:47:38;;;;;;;3.30;3.00;;;7.00;99.90;;;-141.84;65.69;18450.38;5109039;28;20594;-65
2024/03/24 09:50:10;;;;;;;3.27;2.93;;;7.00;99.90;;;-141.84;66.95;18452.41;5107750;28;20209;-65
2024/03/24 09:52:36;;;;;;;3.67;3.10;;;7.00;99.90;;;-141.84;67.21;18458.50;5112574;27;20203;-67
2024/03/24 09:55:04;;;;;;;3.53;2.70;;;7.00;99.90;;;-141.84;67.80;18464.59;5118334;27;20215;-64
2024/03/24 09:57:35;;;;;;;3.10;2.83;;;6.90;99.90;;;-141.84;68.31;18452.41;5112418;27;20214;-64
2024/03/24 10:00:06;;;;;;;2.70;2.50;;;6.80;99.90;;;-141.84;70.01;18493.03;5124825;27;20222;-65
2024/03/24 10:02:33;;;;;;;4.00;2.97;;;6.70;99.90;;;-141.84;70.03;18478.81;5115672;27;20223;-65
2024/03/24 10:05:03;;;;;;;3.57;2.80;;;6.70;99.90;;;-141.84;70.51;18497.09;5114726;27;20202;-68
2024/03/24 10:07:30;;;;;;;3.17;2.70;;;6.70;99.90;;;-141.84;72.13;18525.53;5113279;27;20209;-68
2024/03/24 10:09:58;;;;;;;3.70;2.73;;;6.60;99.90;;;-141.84;71.82;18507.25;5112352;27;20222;-66
2024/03/24 10:12:24;;;;;;;3.80;2.70;;;6.70;99.90;;;-141.84;70.57;18491.00;5108885;27;20230;-66